Time;durP1;ratioP1;P1;durP2;ratioP2;P2;SDS_P1;SDS_P2;PMS_P1;PMS_P2;Temp;Humidity;BMP_temperature;BMP_pressure;BME280_temperature;BME280_humidity;BME280_pressure;Samples;Min_cycle;Max_cycle;Signal;HPM_P1;HPM_P2
2023/02/26 00:01:53;;;;;;;2.57;2.27;;;2.00;99.90;;;1.84;75.09;98819.00;4993570;28;20264;-76
2023/02/26 00:04:22;;;;;;;2.50;2.30;;;2.10;99.90;;;1.86;74.87;98822.38;4988518;28;20204;-77
2023/02/26 00:06:54;;;;;;;2.80;2.33;;;2.10;99.90;;;1.86;74.50;98827.44;5004373;28;20273;-74
2023/02/26 00:09:25;;;;;;;3.43;2.20;;;2.10;99.90;;;1.82;74.58;98827.44;4999196;28;20225;-76
2023/02/26 00:11:56;;;;;;;2.40;2.10;;;2.00;99.90;;;1.82;74.03;98835.06;4999785;28;20294;-74
2023/02/26 00:14:25;;;;;;;2.60;2.00;;;2.00;99.90;;;1.79;74.34;98833.34;5001057;28;20215;-73
2023/02/26 00:17:30;;;;;;;2.17;1.97;;;2.00;99.90;;;1.79;75.03;98840.97;5005899;28;20211;-73
2023/02/26 00:20:02;;;;;;;2.77;1.93;;;2.00;99.90;;;1.76;73.83;98846.03;4995695;28;20310;-73
2023/02/26 00:22:33;;;;;;;2.43;2.10;;;2.00;99.90;;;1.70;74.47;98840.94;5006986;28;20574;-74
2023/02/26 00:25:03;;;;;;;2.17;1.90;;;2.00;99.90;;;1.70;74.18;98851.09;5006714;28;20609;-72
2023/02/26 00:27:34;;;;;;;3.27;1.83;;;1.90;99.90;;;1.66;73.97;98857.00;5001545;28;20207;-75
2023/02/26 00:30:06;;;;;;;3.00;2.07;;;1.90;99.90;;;1.65;73.67;98865.44;4997731;28;20311;-73
2023/02/26 00:32:36;;;;;;;3.60;1.80;;;1.90;99.90;;;1.62;73.04;98863.75;5008098;28;20663;-73
2023/02/26 00:35:06;;;;;;;2.13;1.90;;;1.80;99.90;;;1.60;73.13;98865.41;5006365;28;20238;-74
2023/02/26 00:38:01;;;;;;;2.93;2.10;;;1.80;99.90;;;1.61;73.04;98866.25;5004578;28;20208;-74
2023/02/26 00:40:41;;;;;;;3.07;1.93;;;1.80;99.90;;;1.59;72.87;98867.97;4995467;28;20213;-73
2023/02/26 00:43:18;;;;;;;3.20;2.10;;;1.80;99.90;;;1.56;73.40;98873.03;4997678;28;20222;-74
2023/02/26 00:46:00;;;;;;;2.40;2.20;;;1.80;99.90;;;1.51;73.26;98879.75;4997122;28;20231;-81
2023/02/26 00:48:51;;;;;;;2.20;1.90;;;1.80;99.90;;;1.49;72.66;98883.97;4997382;28;20232;-77
2023/02/26 00:51:28;;;;;;;2.00;1.80;;;1.70;99.90;;;1.45;71.73;98890.72;4999616;28;20250;-78
2023/02/26 00:54:11;;;;;;;2.87;1.97;;;1.70;99.90;;;1.40;72.03;98887.28;5002056;28;20224;-76
2023/02/26 00:56:39;;;;;;;3.10;1.97;;;1.60;99.90;;;1.37;72.11;98880.53;5017474;28;20231;-77
2023/02/26 00:59:08;;;;;;;2.03;1.67;;;1.60;99.90;;;1.35;72.39;98902.50;5007917;28;20212;-76
2023/02/26 01:01:37;;;;;;;2.03;1.80;;;1.60;99.90;;;1.34;72.05;98905.03;5003158;28;20200;-76
2023/02/26 01:04:07;;;;;;;1.80;1.70;;;1.60;99.90;;;1.31;71.63;98902.47;5008778;28;20204;-76
2023/02/26 01:06:43;;;;;;;1.47;1.33;;;1.50;99.90;;;1.24;71.83;98896.50;5006010;28;20231;-76
2023/02/26 01:09:25;;;;;;;1.63;1.53;;;1.50;99.90;;;1.22;71.24;98908.34;4999134;28;20207;-76
2023/02/26 01:12:00;;;;;;;1.80;1.50;;;1.50;99.90;;;1.20;71.80;98915.06;5007732;28;20211;-76
2023/02/26 01:14:31;;;;;;;1.90;1.80;;;1.50;99.90;;;1.22;71.12;98913.41;4997071;28;20217;-76
2023/02/26 01:17:08;;;;;;;2.00;1.60;;;1.50;99.90;;;1.23;71.65;98922.72;5000753;28;20208;-76
2023/02/26 01:19:44;;;;;;;2.03;1.83;;;1.50;99.90;;;1.23;70.87;98927.78;4997740;28;20254;-76
2023/02/26 01:22:19;;;;;;;1.80;1.50;;;1.50;99.90;;;1.24;71.22;98933.69;5001840;28;20200;-76
2023/02/26 01:24:59;;;;;;;2.37;1.80;;;1.60;99.90;;;1.21;71.09;98931.97;5013524;28;20234;-75
2023/02/26 01:27:28;;;;;;;2.20;1.73;;;1.50;99.90;;;1.20;71.16;98940.44;5005340;28;20207;-75
2023/02/26 01:29:57;;;;;;;2.40;1.87;;;1.40;99.90;;;1.19;70.99;98943.81;5011092;28;20219;-75
2023/02/26 01:32:44;;;;;;;2.73;1.97;;;1.40;99.90;;;1.16;70.64;98948.88;5008545;28;20214;-76
2023/02/26 01:35:32;;;;;;;3.17;1.90;;;1.40;99.90;;;1.16;70.57;98964.94;5006197;28;20230;-75
2023/02/26 01:38:09;;;;;;;1.73;1.63;;;1.40;99.90;;;1.12;70.24;98963.22;5014876;28;20204;-74
2023/02/26 01:41:20;;;;;;;2.13;1.93;;;1.40;99.90;;;1.14;70.88;98975.88;5012438;28;20448;-74
2023/02/26 01:44:05;;;;;;;2.00;1.63;;;1.40;99.90;;;1.16;70.67;98976.78;5013123;28;20195;-73
2023/02/26 01:46:46;;;;;;;2.30;2.07;;;1.50;99.90;;;1.16;70.91;98979.31;5001769;28;20208;-77
2023/02/26 01:49:19;;;;;;;2.57;1.93;;;1.40;99.90;;;1.18;70.80;98987.78;5006678;28;20601;-74
2023/02/26 01:51:52;;;;;;;2.13;1.63;;;1.40;99.90;;;1.16;70.10;98985.22;5005234;28;20204;-75
2023/02/26 01:54:23;;;;;;;3.03;1.90;;;1.40;99.90;;;1.14;70.13;98993.66;5013885;28;20191;-74
2023/02/26 01:57:03;;;;;;;2.23;1.73;;;1.40;99.90;;;1.14;70.12;98997.06;5006503;28;20208;-74
2023/02/26 01:59:37;;;;;;;1.97;1.70;;;1.40;99.90;;;1.14;69.55;99001.25;5013387;28;20206;-74
2023/02/26 02:02:10;;;;;;;2.13;1.93;;;1.40;99.90;;;1.16;70.20;99007.22;5006131;28;20208;-74
2023/02/26 02:04:42;;;;;;;2.07;1.93;;;1.40;99.90;;;1.16;69.76;99020.75;5022426;28;20204;-75
2023/02/26 02:07:14;;;;;;;3.17;2.10;;;1.30;99.90;;;1.16;70.27;99025.81;5022241;28;20259;-76
2023/02/26 02:09:43;;;;;;;2.10;1.90;;;1.40;99.90;;;1.17;69.99;99036.81;5023434;28;20240;-76
2023/02/26 02:12:30;;;;;;;1.87;1.53;;;1.40;99.90;;;1.18;69.88;99046.16;5023179;28;20219;-74
2023/02/26 02:15:11;;;;;;;3.50;2.27;;;1.40;99.90;;;1.17;70.25;99046.97;5025020;28;20219;-75
2023/02/26 02:17:50;;;;;;;3.10;2.27;;;1.40;99.90;;;1.16;69.52;99055.41;5017237;28;20208;-77
2023/02/26 02:21:10;;;;;;;2.50;2.00;;;1.40;99.90;;;1.12;69.36;99054.53;5011401;28;20200;-76
2023/02/26 02:23:45;;;;;;;2.50;2.03;;;1.40;99.90;;;1.09;69.14;99061.25;5006151;28;20235;-77
2023/02/26 02:27:12;;;;;;;2.80;2.40;;;1.40;99.90;;;1.04;69.47;99084.03;5009502;28;20203;-76
2023/02/26 02:30:09;;;;;;;3.13;2.27;;;1.30;99.90;;;1.02;69.10;99082.31;4983081;28;20232;-75
2023/02/26 02:32:45;;;;;;;2.77;2.20;;;1.30;99.90;;;0.98;69.09;99086.50;5008315;28;20207;-77
2023/02/26 02:35:20;;;;;;;2.10;1.80;;;1.20;99.90;;;0.97;68.88;99089.88;5012721;28;20235;-78
2023/02/26 02:37:59;;;;;;;2.47;2.27;;;1.20;99.90;;;0.95;68.79;99096.59;5012062;28;20203;-76
2023/02/26 02:40:32;;;;;;;2.47;2.10;;;1.20;99.90;;;0.97;68.71;99094.97;5003507;28;20285;-79
2023/02/26 02:43:09;;;;;;;2.57;2.00;;;1.30;99.90;;;0.98;68.52;99096.66;5011264;28;20207;-76
2023/02/26 02:45:44;;;;;;;2.70;2.03;;;1.20;99.90;;;1.00;68.68;99094.16;4999300;28;20203;-77
2023/02/26 02:48:24;;;;;;;2.17;1.97;;;1.20;99.90;;;1.01;68.43;99099.22;5004858;28;20218;-78
2023/02/26 02:50:59;;;;;;;2.60;2.20;;;1.30;99.90;;;1.01;68.39;99106.84;5007264;28;20214;-76
2023/02/26 02:53:36;;;;;;;2.53;2.33;;;1.30;99.90;;;1.02;68.54;99107.69;5004016;28;20196;-75
2023/02/26 02:56:10;;;;;;;2.33;2.10;;;1.20;99.90;;;1.01;69.01;99104.28;5015170;28;20215;-75
2023/02/26 02:58:44;;;;;;;2.43;1.97;;;1.30;99.90;;;1.03;68.15;99109.38;5006515;28;21646;-76
2023/02/26 03:01:18;;;;;;;1.93;1.73;;;1.30;99.90;;;1.03;68.31;99112.78;4993040;28;20184;-75
2023/02/26 03:03:56;;;;;;;2.57;1.97;;;1.30;99.90;;;1.05;68.31;99110.25;5000959;28;20204;-73
2023/02/26 03:06:25;;;;;;;2.70;2.27;;;1.30;99.90;;;1.06;67.86;99117.03;4993800;28;20641;-74
2023/02/26 03:08:55;;;;;;;2.53;2.10;;;1.30;99.90;;;1.07;68.03;99118.72;4998399;28;20228;-72
2023/02/26 03:11:24;;;;;;;2.30;2.00;;;1.30;99.90;;;1.09;68.50;99122.13;4996251;28;20191;-72
2023/02/26 03:13:53;;;;;;;2.60;2.40;;;1.30;99.90;;;1.11;68.41;99128.09;5000151;28;20735;-72
2023/02/26 03:16:42;;;;;;;2.77;2.13;;;1.30;99.90;;;1.14;68.50;99143.31;4987979;28;20319;-73
2023/02/26 03:19:28;;;;;;;2.67;2.13;;;1.30;99.90;;;1.16;68.60;99142.53;4993327;28;20208;-73
2023/02/26 03:22:05;;;;;;;2.77;2.30;;;1.40;99.90;;;1.20;68.38;99158.63;5002202;28;20215;-73
2023/02/26 03:24:38;;;;;;;2.83;2.07;;;1.50;99.90;;;1.19;68.16;99162.84;4992358;28;20265;-72
2023/02/26 03:27:20;;;;;;;2.70;2.20;;;1.40;99.90;;;1.19;68.75;99172.16;4998461;28;20571;-72
2023/02/26 03:29:55;;;;;;;2.27;2.07;;;1.40;99.90;;;1.17;68.00;99172.13;4997841;28;20227;-73
2023/02/26 03:32:35;;;;;;;2.30;2.07;;;1.40;99.90;;;1.16;67.97;99183.13;4989676;28;20252;-72
2023/02/26 03:35:11;;;;;;;2.60;2.40;;;1.40;99.90;;;1.18;68.17;99189.06;4990620;28;20208;-74
2023/02/26 03:37:45;;;;;;;2.87;2.30;;;1.40;99.90;;;1.19;67.61;99185.69;4989729;28;20210;-74
2023/02/26 03:40:22;;;;;;;2.30;1.80;;;1.40;99.90;;;1.18;68.28;99196.69;4992677;28;20197;-74
2023/02/26 03:42:57;;;;;;;2.53;1.80;;;1.40;99.90;;;1.17;68.05;99189.03;4994265;28;20214;-73
2023/02/26 03:45:31;;;;;;;1.80;1.70;;;1.40;99.90;;;1.16;67.42;99197.50;4993097;28;20296;-76
2023/02/26 03:48:06;;;;;;;1.83;1.70;;;1.40;99.90;;;1.14;67.83;99205.09;4988533;28;20234;-74
2023/02/26 03:50:43;;;;;;;1.77;1.57;;;1.40;99.90;;;1.14;67.40;99201.69;4991874;28;20196;-73
2023/02/26 03:53:17;;;;;;;1.97;1.70;;;1.40;99.90;;;1.14;67.47;99209.28;4991675;28;20200;-71
2023/02/26 03:55:52;;;;;;;2.00;1.70;;;1.40;99.90;;;1.16;67.11;99217.78;4989184;28;20225;-74
2023/02/26 03:58:21;;;;;;;1.70;1.60;;;1.40;99.90;;;1.14;66.47;99219.44;4993321;28;20278;-73
2023/02/26 04:00:59;;;;;;;1.97;1.83;;;1.40;99.90;;;1.15;66.74;99216.94;4992854;28;20216;-72
2023/02/26 04:03:35;;;;;;;2.13;1.63;;;1.40;99.90;;;1.16;67.11;99213.56;5007013;28;20215;-74
2023/02/26 04:06:06;;;;;;;3.30;1.67;;;1.40;99.90;;;1.22;66.87;99225.50;4998011;28;20214;-75
2023/02/26 04:08:36;;;;;;;1.57;1.30;;;1.40;99.90;;;1.20;67.02;99222.91;4990757;28;20314;-73
2023/02/26 04:11:09;;;;;;;2.50;1.63;;;1.40;99.90;;;1.24;66.35;99231.41;4991497;28;20212;-72
2023/02/26 04:13:37;;;;;;;2.60;1.53;;;1.40;99.90;;;1.24;66.91;99236.50;5000129;28;20211;-71
2023/02/26 04:16:07;;;;;;;2.47;1.77;;;1.40;99.90;;;1.23;66.73;99247.47;4993041;28;20315;-72
2023/02/26 04:18:35;;;;;;;1.50;1.40;;;1.40;99.90;;;1.23;66.53;99244.94;4992271;28;20216;-72
2023/02/26 04:21:06;;;;;;;2.63;2.00;;;1.50;99.90;;;1.24;66.43;99254.25;4991201;28;20204;-73
2023/02/26 04:23:35;;;;;;;1.97;1.70;;;1.50;99.90;;;1.26;66.84;99259.38;4992749;28;20205;-72
2023/02/26 04:26:03;;;;;;;1.73;1.33;;;1.50;99.90;;;1.26;66.67;99254.28;4991845;28;20212;-73
2023/02/26 04:28:32;;;;;;;1.70;1.50;;;1.50;99.90;;;1.26;66.23;99265.28;4992377;28;20232;-73
2023/02/26 04:31:01;;;;;;;3.53;1.70;;;1.50;99.90;;;1.25;66.74;99268.63;4992834;28;20212;-72
2023/02/26 04:33:32;;;;;;;2.23;1.67;;;1.40;99.90;;;1.28;66.77;99271.22;4990649;28;20221;-73
2023/02/26 04:36:01;;;;;;;1.83;1.57;;;1.50;99.90;;;1.31;66.70;99270.41;5005619;28;20211;-72
2023/02/26 04:38:31;;;;;;;1.93;1.73;;;1.50;99.90;;;1.31;66.32;99271.25;5007114;28;20617;-72
2023/02/26 04:41:00;;;;;;;1.83;1.50;;;1.50;99.90;;;1.33;65.93;99276.38;4990691;28;20259;-73
2023/02/26 04:43:28;;;;;;;1.77;1.67;;;1.60;99.90;;;1.30;66.14;99272.09;4994836;28;20724;-73
2023/02/26 04:46:00;;;;;;;2.30;1.60;;;1.50;99.90;;;1.27;66.05;99278.81;5000906;28;20612;-72
2023/02/26 04:48:29;;;;;;;2.10;1.43;;;1.50;99.90;;;1.20;66.52;99283.81;4990237;28;20731;-73
2023/02/26 04:50:58;;;;;;;1.90;1.60;;;1.50;99.90;;;1.20;66.77;99280.41;4977759;28;20299;-74
2023/02/26 04:53:28;;;;;;;1.47;1.37;;;1.40;99.90;;;1.19;65.92;99288.88;4993013;28;20208;-73
2023/02/26 04:55:59;;;;;;;2.03;1.40;;;1.40;99.90;;;1.18;66.30;99297.31;4993526;28;20204;-74
2023/02/26 04:58:27;;;;;;;1.60;1.50;;;1.40;99.90;;;1.16;67.11;99291.38;5007181;28;20218;-73
2023/02/26 05:00:58;;;;;;;2.10;1.90;;;1.40;99.90;;;1.18;66.73;99303.25;4995762;28;20266;-74
2023/02/26 05:03:27;;;;;;;1.63;1.53;;;1.40;99.90;;;1.20;66.74;99301.56;5006817;28;20199;-72
2023/02/26 05:05:56;;;;;;;2.07;1.87;;;1.40;99.90;;;1.18;66.86;99307.47;4995768;28;20212;-74
2023/02/26 05:08:25;;;;;;;1.93;1.73;;;1.40;99.90;;;1.20;67.02;99315.94;4977425;28;20239;-73
2023/02/26 05:10:54;;;;;;;2.03;1.50;;;1.40;99.90;;;1.16;67.53;99316.72;5010883;28;20617;-73
2023/02/26 05:13:24;;;;;;;1.63;1.40;;;1.40;99.90;;;1.15;67.32;99325.19;4995693;28;20259;-73
2023/02/26 05:15:54;;;;;;;1.57;1.47;;;1.40;99.90;;;1.12;67.18;99325.13;4971083;28;20200;-72
2023/02/26 05:18:23;;;;;;;1.90;1.50;;;1.40;99.90;;;1.08;67.70;99328.47;4975692;28;20200;-72
2023/02/26 05:20:56;;;;;;;2.10;1.63;;;1.30;99.90;;;1.06;67.88;99337.72;5000299;28;20235;-73
2023/02/26 05:23:25;;;;;;;2.63;1.60;;;1.30;99.90;;;1.02;67.80;99333.44;4998744;28;20212;-74
2023/02/26 05:25:56;;;;;;;2.50;1.83;;;1.30;99.90;;;1.04;67.89;99342.78;4996956;28;20215;-72
2023/02/26 05:28:26;;;;;;;1.83;1.63;;;1.30;99.90;;;1.04;68.07;99344.47;4994557;28;20270;-74
2023/02/26 05:30:57;;;;;;;1.97;1.77;;;1.30;99.90;;;1.04;68.34;99345.31;5009837;28;20649;-73
2023/02/26 05:33:27;;;;;;;2.13;1.93;;;1.30;99.90;;;1.09;68.31;99353.00;4988423;28;20204;-74
2023/02/26 05:35:56;;;;;;;2.90;1.53;;;1.40;99.90;;;1.11;68.04;99361.50;4995815;28;20215;-73
2023/02/26 05:38:26;;;;;;;3.00;1.70;;;1.30;99.90;;;1.14;68.43;99361.50;4995959;28;20224;-74
2023/02/26 05:40:57;;;;;;;1.70;1.60;;;1.30;99.90;;;1.13;68.60;99360.66;4995817;28;20303;-74
2023/02/26 05:43:28;;;;;;;1.90;1.40;;;1.40;99.90;;;1.12;67.82;99370.81;4995159;28;20574;-74
2023/02/26 05:45:57;;;;;;;3.97;1.90;;;1.30;99.90;;;1.10;67.91;99374.97;4995204;28;20207;-75
2023/02/26 05:48:26;;;;;;;1.50;1.30;;;1.30;99.90;;;1.08;67.59;99391.88;4996426;28;20208;-73
2023/02/26 05:50:54;;;;;;;1.87;1.43;;;1.30;99.90;;;1.03;68.18;99389.28;4993071;28;20231;-75
2023/02/26 05:53:23;;;;;;;2.27;1.60;;;1.30;99.90;;;1.07;68.04;99400.28;4995585;28;20216;-74
2023/02/26 05:55:54;;;;;;;2.33;1.33;;;1.30;99.90;;;1.01;67.94;99420.50;4995664;28;20212;-75
2023/02/26 05:58:24;;;;;;;1.43;1.27;;;1.30;99.90;;;0.94;66.63;99417.88;5003122;28;20222;-75
2023/02/26 06:00:56;;;;;;;2.87;1.53;;;1.20;99.90;;;0.90;65.79;99426.25;4982760;28;20669;-73
2023/02/26 06:03:24;;;;;;;1.00;0.77;;;1.10;99.90;;;0.81;64.97;99428.63;4997187;28;20558;-74
2023/02/26 06:05:53;;;;;;;2.30;1.20;;;1.10;99.90;;;0.75;64.57;99438.66;4977196;28;20316;-74
2023/02/26 06:08:22;;;;;;;1.73;1.10;;;1.00;99.90;;;0.66;64.45;99444.44;4990675;28;20223;-73
2023/02/26 06:10:51;;;;;;;1.23;1.13;;;0.90;99.90;;;0.65;64.40;99447.78;4995537;28;20268;-73
2023/02/26 06:13:21;;;;;;;1.07;0.97;;;0.90;99.90;;;0.60;64.17;99446.00;4994016;28;20808;-73
2023/02/26 06:15:52;;;;;;;1.10;1.00;;;0.90;99.90;;;0.57;63.38;99458.59;4996557;28;20227;-72
2023/02/26 06:18:22;;;;;;;1.63;1.10;;;0.80;99.90;;;0.53;63.40;99466.97;4995486;28;20234;-72
2023/02/26 06:20:51;;;;;;;1.37;1.27;;;0.70;99.90;;;0.52;63.51;99467.81;4994708;28;20212;-73
2023/02/26 06:23:23;;;;;;;1.30;0.83;;;0.70;99.90;;;0.51;63.50;99482.13;4987209;28;20251;-71
2023/02/26 06:25:54;;;;;;;1.90;1.20;;;0.70;99.90;;;0.51;63.46;99481.28;4994192;28;20212;-73
2023/02/26 06:28:23;;;;;;;3.10;1.17;;;0.70;99.90;;;0.48;63.28;99485.50;4999615;28;20223;-71
2023/02/26 06:30:53;;;;;;;1.50;0.90;;;0.70;99.90;;;0.47;63.06;99488.81;4995309;28;20212;-73
2023/02/26 06:33:25;;;;;;;1.40;1.20;;;0.70;99.90;;;0.46;63.28;99492.19;4994721;28;20569;-74
2023/02/26 06:35:56;;;;;;;2.30;1.27;;;0.70;99.90;;;0.42;63.76;99495.50;4994482;28;20596;-71
2023/02/26 06:38:25;;;;;;;2.40;1.30;;;0.70;99.90;;;0.44;63.35;99513.25;4995257;28;20220;-71
2023/02/26 06:40:54;;;;;;;1.20;1.10;;;0.70;99.90;;;0.44;62.85;99511.59;4999472;28;20215;-72
2023/02/26 06:43:23;;;;;;;1.53;1.10;;;0.70;99.90;;;0.41;63.23;99516.59;4996559;28;20211;-71
2023/02/26 06:45:56;;;;;;;1.60;1.20;;;0.70;99.90;;;0.39;63.28;99515.69;4994759;28;20208;-73
2023/02/26 06:48:28;;;;;;;1.30;1.00;;;0.60;99.90;;;0.37;62.45;99519.91;4993028;28;20210;-71
2023/02/26 06:50:57;;;;;;;2.10;1.30;;;0.60;99.90;;;0.30;62.85;99523.13;4994151;28;20649;-71
2023/02/26 06:53:25;;;;;;;1.40;1.30;;;0.60;99.90;;;0.29;63.04;99534.06;4993833;28;20287;-72
2023/02/26 06:55:54;;;;;;;1.33;1.10;;;0.60;99.90;;;0.29;63.09;99535.75;4988299;28;20216;-71
2023/02/26 06:58:24;;;;;;;1.30;1.20;;;0.60;99.90;;;0.29;62.76;99533.22;4994334;28;20632;-70
2023/02/26 07:00:53;;;;;;;2.20;0.90;;;0.60;99.90;;;0.29;62.21;99538.28;4990797;28;20262;-72
2023/02/26 07:03:22;;;;;;;2.13;1.03;;;0.50;99.90;;;0.31;62.32;99542.56;4992874;28;20204;-74
2023/02/26 07:05:52;;;;;;;1.60;1.10;;;0.60;99.90;;;0.34;62.05;99555.31;4995687;28;20227;-73
2023/02/26 07:08:22;;;;;;;1.83;1.00;;;0.60;99.90;;;0.38;61.78;99556.22;4994865;28;20244;-74
2023/02/26 07:10:52;;;;;;;1.00;0.90;;;0.70;99.90;;;0.41;61.55;99566.44;4999530;28;20300;-75
2023/02/26 07:13:22;;;;;;;1.83;0.90;;;0.60;99.90;;;0.44;60.66;99572.44;4984933;28;20688;-72
2023/02/26 07:15:50;;;;;;;2.37;0.90;;;0.70;99.90;;;0.49;60.49;99577.59;4987245;28;20226;-72
2023/02/26 07:18:23;;;;;;;1.40;1.10;;;0.80;99.90;;;0.56;60.69;99587.03;4982842;28;20234;-72
2023/02/26 07:20:55;;;;;;;1.80;0.90;;;0.80;99.90;;;0.62;59.99;99582.06;4995192;28;20208;-76
2023/02/26 07:23:25;;;;;;;1.23;0.90;;;0.90;99.90;;;0.67;59.71;99582.19;4988711;28;20207;-75
2023/02/26 07:25:55;;;;;;;1.63;0.97;;;0.90;99.90;;;0.73;59.46;99584.81;4999383;28;20648;-75
2023/02/26 07:28:24;;;;;;;1.83;1.17;;;1.00;99.90;;;0.78;59.04;99590.03;4979309;28;20712;-75
2023/02/26 07:30:57;;;;;;;1.93;1.30;;;1.00;99.90;;;0.82;59.05;99594.31;4989792;28;20307;-75
2023/02/26 07:33:27;;;;;;;1.97;1.17;;;1.10;99.90;;;0.81;58.81;99603.63;4996364;28;20212;-77
2023/02/26 07:35:59;;;;;;;1.43;1.20;;;1.10;99.90;;;0.83;58.33;99608.69;5003296;28;20227;-78
2023/02/26 07:38:31;;;;;;;2.13;1.23;;;1.10;99.90;;;0.82;58.77;99612.94;4999904;28;20216;-78
2023/02/26 07:41:00;;;;;;;2.93;1.17;;;1.10;99.90;;;0.87;58.33;99615.53;4992546;28;20200;-74
2023/02/26 07:43:32;;;;;;;2.10;1.47;;;1.10;99.90;;;0.87;58.30;99611.31;4984166;28;20243;-71
2023/02/26 07:46:03;;;;;;;2.17;1.17;;;1.10;99.90;;;0.89;58.87;99629.97;4994712;28;20211;-75
2023/02/26 07:48:32;;;;;;;2.13;1.23;;;1.20;99.90;;;0.90;58.83;99628.28;4996557;28;20216;-77
2023/02/26 07:51:03;;;;;;;1.67;1.10;;;1.20;99.90;;;0.94;58.73;99633.44;5013427;28;20220;-79
2023/02/26 07:53:32;;;;;;;1.20;1.00;;;1.20;99.90;;;0.96;58.83;99634.34;5095575;23;20297;-78
2023/02/26 07:56:02;;;;;;;1.57;1.33;;;1.20;99.90;;;0.94;58.31;99643.59;5253200;23;20215;-74
2023/02/26 07:58:30;;;;;;;1.53;1.30;;;1.30;99.90;;;0.94;58.32;99648.66;4977554;28;20264;-80
2023/02/26 08:01:00;;;;;;;1.37;1.17;;;1.20;99.90;;;0.92;58.63;99649.47;4971457;28;20267;-76
2023/02/26 08:03:28;;;;;;;2.40;1.10;;;1.20;99.90;;;0.97;58.30;99655.50;5072835;23;20250;-79
2023/02/26 08:08:44;;;;;;;1.87;1.40;;;1.20;99.90;;;1.01;59.35;99658.97;5363583;23;20219;-81
2023/02/26 08:11:12;;;;;;;2.53;1.40;;;1.30;99.90;;;1.08;59.25;99663.34;5022075;28;20211;-77
2023/02/26 08:13:41;;;;;;;1.40;1.03;;;1.30;99.90;;;1.15;59.24;99666.03;5014429;28;20214;-74
2023/02/26 08:16:10;;;;;;;1.33;1.20;;;1.40;99.90;;;1.22;59.05;99672.09;5012875;28;20645;-76
2023/02/26 08:18:39;;;;;;;1.50;1.40;;;1.50;99.90;;;1.26;59.01;99680.63;5013279;28;20234;-77
2023/02/26 08:21:09;;;;;;;1.77;1.10;;;1.50;99.90;;;1.29;58.73;99679.00;5021114;28;20203;-75
2023/02/26 08:23:38;;;;;;;1.60;1.20;;;1.50;99.90;;;1.33;58.35;99688.38;5017157;28;20211;-73
2023/02/26 08:26:12;;;;;;;1.40;1.27;;;1.50;99.90;;;1.35;57.91;99696.00;5004320;28;20211;-71
2023/02/26 08:28:41;;;;;;;1.30;1.20;;;1.60;99.90;;;1.33;57.66;99701.06;5013186;28;20245;-71
2023/02/26 08:31:10;;;;;;;1.63;1.10;;;1.60;99.90;;;1.35;57.92;99701.94;5024356;28;20203;-72
2023/02/26 08:33:39;;;;;;;1.70;1.30;;;1.60;99.90;;;1.34;57.53;99705.31;5020421;28;20198;-74
2023/02/26 08:36:09;;;;;;;2.00;1.20;;;1.60;99.90;;;1.31;57.73;99712.84;5022211;28;20221;-72
2023/02/26 08:38:38;;;;;;;1.10;1.00;;;1.60;99.90;;;1.30;57.86;99713.69;5015867;28;20222;-71
2023/02/26 08:41:08;;;;;;;2.00;1.10;;;1.50;99.90;;;1.32;57.87;99716.25;5023975;28;20609;-71
2023/02/26 08:43:36;;;;;;;1.67;1.20;;;1.60;99.90;;;1.31;57.06;99717.94;5018166;28;20269;-69
2023/02/26 08:46:06;;;;;;;1.33;1.20;;;1.60;99.90;;;1.32;57.29;99721.31;5022065;28;20669;-73
2023/02/26 08:48:35;;;;;;;2.03;1.20;;;1.60;99.90;;;1.31;57.28;99730.63;5024698;28;20203;-72
2023/02/26 08:51:04;;;;;;;0.93;0.87;;;1.60;99.90;;;1.26;57.88;99729.69;5022976;28;20211;-71
2023/02/26 08:53:33;;;;;;;0.80;0.70;;;1.50;99.90;;;1.23;57.11;99736.38;5015397;28;20202;-71
2023/02/26 08:56:01;;;;;;;1.27;0.77;;;1.50;99.90;;;1.19;57.25;99740.53;5013766;28;20208;-75
2023/02/26 08:58:34;;;;;;;1.20;0.87;;;1.50;99.90;;;1.20;56.95;99748.16;5028919;28;20234;-73
2023/02/26 09:01:04;;;;;;;0.97;0.90;;;1.50;99.90;;;1.19;57.43;99761.69;5022936;28;20216;-70
2023/02/26 09:03:33;;;;;;;0.60;0.60;;;1.50;99.90;;;1.16;57.14;99760.75;5003849;28;20216;-73
2023/02/26 09:06:01;;;;;;;0.73;0.70;;;1.50;99.90;;;1.15;56.92;99775.13;5025559;28;20207;-72
2023/02/26 09:08:32;;;;;;;0.70;0.70;;;1.40;99.90;;;1.11;56.54;99773.34;5051495;23;20254;-76
2023/02/26 09:11:02;;;;;;;1.20;0.70;;;1.40;99.90;;;1.09;56.96;99781.75;4999938;28;20187;-80
2023/02/26 09:13:32;;;;;;;1.80;1.07;;;1.40;99.90;;;1.03;57.08;99779.06;5019709;28;20279;-76
2023/02/26 09:16:01;;;;;;;1.17;0.83;;;1.40;99.90;;;1.07;57.16;99791.88;5015836;28;20208;-77
2023/02/26 09:18:30;;;;;;;1.00;0.90;;;1.40;99.90;;;1.05;58.01;99792.66;5006487;28;20302;-71
2023/02/26 09:20:58;;;;;;;2.20;0.90;;;1.30;99.90;;;1.01;57.35;99798.47;5002046;28;20307;-71
2023/02/26 09:23:27;;;;;;;0.80;0.80;;;1.30;99.90;;;1.00;57.88;99799.31;5011021;28;20219;-73
2023/02/26 09:25:57;;;;;;;1.77;1.10;;;1.40;99.90;;;1.03;57.95;99800.25;5007931;28;20770;-74
2023/02/26 09:28:26;;;;;;;1.20;0.93;;;1.40;99.90;;;1.06;58.23;99805.34;5003509;28;20235;-72
2023/02/26 09:30:56;;;;;;;0.80;0.80;;;1.40;99.90;;;1.11;57.82;99805.47;4990409;28;20204;-72
2023/02/26 09:33:26;;;;;;;1.87;1.03;;;1.40;99.90;;;1.17;57.97;99814.06;4989509;28;20222;-71
2023/02/26 09:35:54;;;;;;;0.80;0.80;;;1.50;99.90;;;1.22;58.36;99820.94;4991026;28;20310;-74
2023/02/26 09:38:23;;;;;;;0.97;0.87;;;1.50;99.90;;;1.23;57.68;99818.44;4990335;28;20242;-75
2023/02/26 09:40:58;;;;;;;1.67;1.13;;;1.50;99.90;;;1.24;58.03;99816.75;4988543;28;20212;-73
2023/02/26 09:44:09;;;;;;;2.37;1.20;;;1.50;99.90;;;1.26;58.18;99827.81;4989811;28;20211;-73
2023/02/26 09:46:49;;;;;;;1.60;1.20;;;1.60;99.90;;;1.28;57.51;99831.22;4989424;28;20516;-74
2023/02/26 09:49:27;;;;;;;1.45;1.23;;;1.60;99.90;;;1.26;58.73;99837.97;4993471;28;20861;-67
2023/02/26 09:52:17;;;;;;;1.30;1.07;;;1.60;99.90;;;1.29;58.96;99843.97;4997294;28;20637;-69
2023/02/26 09:54:50;;;;;;;1.47;1.37;;;1.60;99.90;;;1.36;58.17;99855.97;4994896;28;20203;-70
2023/02/26 09:57:29;;;;;;;1.30;1.17;;;1.60;99.90;;;1.37;58.08;99856.81;4989794;28;20273;-71
2023/02/26 10:00:00;;;;;;;1.43;1.23;;;1.60;99.90;;;1.39;58.52;99856.00;4995165;28;20692;-68
2023/02/26 10:02:49;;;;;;;1.50;1.40;;;1.70;99.90;;;1.38;58.48;99853.44;4993321;28;20208;-65
2023/02/26 10:05:23;;;;;;;2.00;1.60;;;1.80;99.90;;;1.39;58.27;99861.09;4992894;28;20238;-70
2023/02/26 10:07:58;;;;;;;1.40;1.30;;;1.70;99.90;;;1.38;58.75;99863.59;4994171;28;20252;-67
2023/02/26 10:10:38;;;;;;;1.70;1.40;;;1.70;99.90;;;1.39;59.04;99861.09;4989069;28;20235;-70
2023/02/26 10:13:20;;;;;;;2.90;1.53;;;1.70;99.90;;;1.43;58.85;99872.16;4994784;28;20226;-75
2023/02/26 10:15:53;;;;;;;2.20;1.40;;;1.70;99.90;;;1.45;59.14;99868.84;4993906;28;20204;-70
2023/02/26 10:18:30;;;;;;;1.93;1.40;;;1.70;99.90;;;1.50;59.33;99879.09;4992050;28;20192;-70
2023/02/26 10:21:07;;;;;;;1.87;1.20;;;1.80;99.90;;;1.52;59.07;99871.53;4993408;28;20236;-79
2023/02/26 10:23:44;;;;;;;1.73;1.30;;;1.80;99.90;;;1.57;59.61;99882.63;4995187;28;20235;-78
2023/02/26 10:26:21;;;;;;;1.60;1.50;;;1.80;99.90;;;1.59;59.45;99883.53;4996882;28;20199;-74
2023/02/26 10:31:35;;;;;;;5.30;3.30;;;1.90;99.90;;;1.58;58.99;99891.97;5471528;22;20239;-73
2023/02/26 10:34:06;;;;;;;5.20;1.70;;;1.90;99.90;;;1.59;58.90;99896.25;5351671;23;20242;31
2023/02/26 10:36:47;;;;;;;3.50;1.60;;;1.80;99.90;;;1.56;59.42;99893.63;4964219;28;20240;-76
2023/02/26 10:39:30;;;;;;;2.67;1.67;;;1.80;99.90;;;1.55;59.06;99899.53;4967716;28;20276;-74
2023/02/26 10:42:03;;;;;;;3.20;1.60;;;1.80;99.90;;;1.57;59.57;99905.50;4956398;29;20197;-68
2023/02/26 10:44:39;;;;;;;3.87;1.73;;;1.80;99.90;;;1.60;59.36;99916.56;4954180;29;20209;-69
2023/02/26 10:47:22;;;;;;;4.13;1.87;;;1.80;99.90;;;1.59;60.32;99921.63;4957211;28;20209;-70
2023/02/26 10:49:56;;;;;;;6.20;2.10;;;1.80;99.90;;;1.59;60.04;99921.63;4960853;29;20711;-74
2023/02/26 10:52:29;;;;;;;2.50;1.70;;;1.80;99.90;;;1.60;60.23;99926.72;4973074;28;20267;-73
2023/02/26 10:55:21;;;;;;;2.30;1.87;;;1.80;99.90;;;1.62;60.59;99935.25;4959495;29;20209;-77
2023/02/26 10:58:00;;;;;;;2.13;1.60;;;1.90;99.90;;;1.63;59.71;99938.66;4967011;28;20209;-74
2023/02/26 11:00:31;;;;;;;2.83;1.73;;;1.90;99.90;;;1.62;58.16;99937.78;4957922;28;20225;-77
2023/02/26 11:03:02;;;;;;;2.30;1.33;;;1.90;99.90;;;1.64;58.14;99937.81;4968153;28;20212;-83
2023/02/26 11:05:34;;;;;;;2.07;1.13;;;1.90;99.90;;;1.61;56.02;99930.13;4960775;28;20197;-77